sensor_id;sensor_type;location;lat;lon;timestamp;temperature;humidity
72936;DHT22;61085;48.804;9.228;2022-10-16T00:01:09;17.20;98.40
72936;DHT22;61085;48.804;9.228;2022-10-16T00:03:37;17.20;98.70
72936;DHT22;61085;48.804;9.228;2022-10-16T00:06:04;17.20;98.70
72936;DHT22;61085;48.804;9.228;2022-10-16T00:08:30;17.20;98.70
72936;DHT22;61085;48.804;9.228;2022-10-16T00:11:20;17.10;98.80
72936;DHT22;61085;48.804;9.228;2022-10-16T00:13:47;17.10;98.60
72936;DHT22;61085;48.804;9.228;2022-10-16T00:16:14;17.10;98.70
72936;DHT22;61085;48.804;9.228;2022-10-16T00:18:41;17.20;98.40
72936;DHT22;61085;48.804;9.228;2022-10-16T00:21:12;17.20;98.30
72936;DHT22;61085;48.804;9.228;2022-10-16T00:23:38;17.20;98.50
72936;DHT22;61085;48.804;9.228;2022-10-16T00:26:11;17.20;98.60
72936;DHT22;61085;48.804;9.228;2022-10-16T00:28:37;17.30;98.30
72936;DHT22;61085;48.804;9.228;2022-10-16T00:31:08;17.30;98.50
72936;DHT22;61085;48.804;9.228;2022-10-16T00:33:35;17.20;98.80
72936;DHT22;61085;48.804;9.228;2022-10-16T00:36:03;17.20;98.90
72936;DHT22;61085;48.804;9.228;2022-10-16T00:38:29;17.10;98.90
72936;DHT22;61085;48.804;9.228;2022-10-16T00:40:55;17.10;99.30
72936;DHT22;61085;48.804;9.228;2022-10-16T00:46:41;16.80;99.90
72936;DHT22;61085;48.804;9.228;2022-10-16T00:49:13;16.80;99.90
72936;DHT22;61085;48.804;9.228;2022-10-16T00:51:47;16.70;99.90
72936;DHT22;61085;48.804;9.228;2022-10-16T00:54:23;16.80;99.90
72936;DHT22;61085;48.804;9.228;2022-10-16T00:56:50;16.90;99.90
72936;DHT22;61085;48.804;9.228;2022-10-16T00:59:19;16.90;99.80
72936;DHT22;61085;48.804;9.228;2022-10-16T01:01:45;16.90;99.80
72936;DHT22;61085;48.804;9.228;2022-10-16T01:04:11;16.90;99.90
72936;DHT22;61085;48.804;9.228;2022-10-16T01:06:46;16.90;99.90
72936;DHT22;61085;48.804;9.228;2022-10-16T01:09:34;16.90;99.70
72936;DHT22;61085;48.804;9.228;2022-10-16T01:12:23;16.90;99.90
72936;DHT22;61085;48.804;9.228;2022-10-16T01:15:09;16.90;99.90
72936;DHT22;61085;48.804;9.228;2022-10-16T01:20:33;16.90;99.60
72936;DHT22;61085;48.804;9.228;2022-10-16T01:23:27;16.80;99.90
72936;DHT22;61085;48.804;9.228;2022-10-16T01:28:34;16.80;99.90
72936;DHT22;61085;48.804;9.228;2022-10-16T01:31:02;16.80;99.90
72936;DHT22;61085;48.804;9.228;2022-10-16T01:33:38;16.80;99.90
72936;DHT22;61085;48.804;9.228;2022-10-16T01:36:18;16.80;99.90
72936;DHT22;61085;48.804;9.228;2022-10-16T01:38:48;16.80;99.90
72936;DHT22;61085;48.804;9.228;2022-10-16T01:41:19;16.80;99.90
72936;DHT22;61085;48.804;9.228;2022-10-16T01:43:56;16.70;99.90
72936;DHT22;61085;48.804;9.228;2022-10-16T01:46:24;16.90;99.90
72936;DHT22;61085;48.804;9.228;2022-10-16T01:48:52;16.70;99.90
72936;DHT22;61085;48.804;9.228;2022-10-16T01:51:19;16.70;99.90
72936;DHT22;61085;48.804;9.228;2022-10-16T01:53:52;16.80;99.90
72936;DHT22;61085;48.804;9.228;2022-10-16T01:56:20;16.60;99.90
72936;DHT22;61085;48.804;9.228;2022-10-16T01:58:53;16.60;99.90
72936;DHT22;61085;48.804;9.228;2022-10-16T02:01:20;16.60;99.90
72936;DHT22;61085;48.804;9.228;2022-10-16T02:03:46;16.60;99.90
72936;DHT22;61085;48.804;9.228;2022-10-16T02:06:15;16.60;99.90
72936;DHT22;61085;48.804;9.228;2022-10-16T02:08:41;16.70;99.90
72936;DHT22;61085;48.804;9.228;2022-10-16T02:11:09;16.70;99.90
72936;DHT22;61085;48.804;9.228;2022-10-16T02:16:04;16.70;99.90
72936;DHT22;61085;48.804;9.228;2022-10-16T02:18:29;16.70;99.90
72936;DHT22;61085;48.804;9.228;2022-10-16T02:26:28;16.60;99.90
72936;DHT22;61085;48.804;9.228;2022-10-16T02:28:59;16.60;99.90
72936;DHT22;61085;48.804;9.228;2022-10-16T02:31:29;16.70;99.90
72936;DHT22;61085;48.804;9.228;2022-10-16T02:33:58;16.70;99.90
72936;DHT22;61085;48.804;9.228;2022-10-16T02:36:25;16.60;99.90
72936;DHT22;61085;48.804;9.228;2022-10-16T02:38:51;16.50;99.90
72936;DHT22;61085;48.804;9.228;2022-10-16T02:41:17;16.50;99.90
72936;DHT22;61085;48.804;9.228;2022-10-16T02:43:43;16.50;99.90
72936;DHT22;61085;48.804;9.228;2022-10-16T02:46:09;16.40;99.90
72936;DHT22;61085;48.804;9.228;2022-10-16T02:48:34;16.50;99.90
72936;DHT22;61085;48.804;9.228;2022-10-16T02:51:01;16.60;99.90
72936;DHT22;61085;48.804;9.228;2022-10-16T02:53:26;16.50;99.90
72936;DHT22;61085;48.804;9.228;2022-10-16T02:55:52;16.40;99.90
72936;DHT22;61085;48.804;9.228;2022-10-16T02:58:17;16.30;99.90
72936;DHT22;61085;48.804;9.228;2022-10-16T03:00:43;16.40;99.90
72936;DHT22;61085;48.804;9.228;2022-10-16T03:03:09;16.40;99.90
72936;DHT22;61085;48.804;9.228;2022-10-16T03:05:34;16.40;99.90
72936;DHT22;61085;48.804;9.228;2022-10-16T03:08:00;16.50;99.90
72936;DHT22;61085;48.804;9.228;2022-10-16T03:10:26;16.60;99.90
72936;DHT22;61085;48.804;9.228;2022-10-16T03:12:52;16.60;99.90
72936;DHT22;61085;48.804;9.228;2022-10-16T03:15:18;16.50;99.90
72936;DHT22;61085;48.804;9.228;2022-10-16T03:17:43;16.50;99.90
72936;DHT22;61085;48.804;9.228;2022-10-16T03:20:09;16.40;99.90
72936;DHT22;61085;48.804;9.228;2022-10-16T03:22:35;16.40;99.90
72936;DHT22;61085;48.804;9.228;2022-10-16T03:25:01;16.40;99.90
72936;DHT22;61085;48.804;9.228;2022-10-16T03:27:27;16.30;99.90
72936;DHT22;61085;48.804;9.228;2022-10-16T03:29:52;16.30;99.90
72936;DHT22;61085;48.804;9.228;2022-10-16T03:32:18;16.20;99.90
72936;DHT22;61085;48.804;9.228;2022-10-16T03:34:45;16.20;99.90
72936;DHT22;61085;48.804;9.228;2022-10-16T03:37:11;16.10;99.90
72936;DHT22;61085;48.804;9.228;2022-10-16T03:39:36;16.10;99.90
72936;DHT22;61085;48.804;9.228;2022-10-16T03:42:02;16.20;99.90
72936;DHT22;61085;48.804;9.228;2022-10-16T03:44:30;16.10;99.90
72936;DHT22;61085;48.804;9.228;2022-10-16T03:46:56;16.30;99.90
72936;DHT22;61085;48.804;9.228;2022-10-16T03:49:22;16.20;99.90
72936;DHT22;61085;48.804;9.228;2022-10-16T03:51:47;16.20;99.90
72936;DHT22;61085;48.804;9.228;2022-10-16T03:54:13;16.10;99.90
72936;DHT22;61085;48.804;9.228;2022-10-16T03:56:38;16.10;99.90
72936;DHT22;61085;48.804;9.228;2022-10-16T03:59:04;16.10;99.90
72936;DHT22;61085;48.804;9.228;2022-10-16T04:01:29;16.10;99.90
72936;DHT22;61085;48.804;9.228;2022-10-16T04:03:55;16.00;99.90
72936;DHT22;61085;48.804;9.228;2022-10-16T04:06:21;16.10;99.90
72936;DHT22;61085;48.804;9.228;2022-10-16T04:08:46;16.00;99.90
72936;DHT22;61085;48.804;9.228;2022-10-16T04:11:12;16.20;99.90
72936;DHT22;61085;48.804;9.228;2022-10-16T04:13:37;16.00;99.90
72936;DHT22;61085;48.804;9.228;2022-10-16T04:16:03;16.00;99.90
72936;DHT22;61085;48.804;9.228;2022-10-16T04:18:32;15.90;99.90
72936;DHT22;61085;48.804;9.228;2022-10-16T04:21:02;16.00;99.90
72936;DHT22;61085;48.804;9.228;2022-10-16T04:23:28;15.90;99.90
72936;DHT22;61085;48.804;9.228;2022-10-16T04:25:57;15.90;99.90
72936;DHT22;61085;48.804;9.228;2022-10-16T04:28:22;15.90;99.90
72936;DHT22;61085;48.804;9.228;2022-10-16T04:30:48;15.80;99.90
72936;DHT22;61085;48.804;9.228;2022-10-16T04:33:13;15.70;99.90
72936;DHT22;61085;48.804;9.228;2022-10-16T04:35:39;16.00;99.90
72936;DHT22;61085;48.804;9.228;2022-10-16T04:38:05;15.90;99.90
72936;DHT22;61085;48.804;9.228;2022-10-16T04:40:30;15.90;99.90
72936;DHT22;61085;48.804;9.228;2022-10-16T04:43:02;15.90;99.90
72936;DHT22;61085;48.804;9.228;2022-10-16T04:45:27;15.90;99.90
72936;DHT22;61085;48.804;9.228;2022-10-16T04:47:57;15.90;99.90
72936;DHT22;61085;48.804;9.228;2022-10-16T04:50:22;15.90;99.90
72936;DHT22;61085;48.804;9.228;2022-10-16T04:52:48;16.00;99.90
72936;DHT22;61085;48.804;9.228;2022-10-16T04:55:13;16.00;99.90
72936;DHT22;61085;48.804;9.228;2022-10-16T04:57:39;16.00;99.90
72936;DHT22;61085;48.804;9.228;2022-10-16T05:00:05;16.00;99.90
72936;DHT22;61085;48.804;9.228;2022-10-16T05:02:31;16.00;99.90
72936;DHT22;61085;48.804;9.228;2022-10-16T05:04:57;15.90;99.90
72936;DHT22;61085;48.804;9.228;2022-10-16T05:07:22;15.90;99.90
72936;DHT22;61085;48.804;9.228;2022-10-16T05:09:48;15.90;99.90
72936;DHT22;61085;48.804;9.228;2022-10-16T05:12:14;15.90;99.90
72936;DHT22;61085;48.804;9.228;2022-10-16T05:14:39;16.00;99.90
72936;DHT22;61085;48.804;9.228;2022-10-16T05:17:05;16.10;99.90
72936;DHT22;61085;48.804;9.228;2022-10-16T05:19:31;16.10;99.90
72936;DHT22;61085;48.804;9.228;2022-10-16T05:21:56;16.10;99.90
72936;DHT22;61085;48.804;9.228;2022-10-16T05:24:22;16.10;99.90
72936;DHT22;61085;48.804;9.228;2022-10-16T05:26:48;16.00;99.90
72936;DHT22;61085;48.804;9.228;2022-10-16T05:29:13;16.00;99.90
72936;DHT22;61085;48.804;9.228;2022-10-16T05:31:39;16.20;99.90
72936;DHT22;61085;48.804;9.228;2022-10-16T05:34:05;16.20;99.90
72936;DHT22;61085;48.804;9.228;2022-10-16T05:36:33;16.40;99.90
72936;DHT22;61085;48.804;9.228;2022-10-16T05:38:59;16.20;99.90
72936;DHT22;61085;48.804;9.228;2022-10-16T05:41:24;16.20;99.90
72936;DHT22;61085;48.804;9.228;2022-10-16T05:43:51;16.20;99.90
72936;DHT22;61085;48.804;9.228;2022-10-16T05:46:20;16.20;99.90
72936;DHT22;61085;48.804;9.228;2022-10-16T05:48:52;16.20;99.90
72936;DHT22;61085;48.804;9.228;2022-10-16T05:51:18;16.10;99.90
72936;DHT22;61085;48.804;9.228;2022-10-16T05:53:44;16.00;99.90
72936;DHT22;61085;48.804;9.228;2022-10-16T05:56:10;16.00;99.90
72936;DHT22;61085;48.804;9.228;2022-10-16T05:58:38;16.00;99.90
72936;DHT22;61085;48.804;9.228;2022-10-16T06:01:14;16.10;99.90
72936;DHT22;61085;48.804;9.228;2022-10-16T06:03:41;16.10;99.90
72936;DHT22;61085;48.804;9.228;2022-10-16T06:06:15;16.00;99.90
72936;DHT22;61085;48.804;9.228;2022-10-16T06:08:42;16.20;99.90
72936;DHT22;61085;48.804;9.228;2022-10-16T06:11:10;16.10;99.90
72936;DHT22;61085;48.804;9.228;2022-10-16T06:13:36;16.10;99.90
72936;DHT22;61085;48.804;9.228;2022-10-16T06:16:03;16.20;99.90
72936;DHT22;61085;48.804;9.228;2022-10-16T06:18:29;16.10;99.90
72936;DHT22;61085;48.804;9.228;2022-10-16T06:20:56;16.10;99.90
72936;DHT22;61085;48.804;9.228;2022-10-16T06:23:22;16.70;99.90
72936;DHT22;61085;48.804;9.228;2022-10-16T06:25:48;17.40;99.90
72936;DHT22;61085;48.804;9.228;2022-10-16T06:28:14;17.80;99.10
72936;DHT22;61085;48.804;9.228;2022-10-16T06:30:41;17.90;97.70
72936;DHT22;61085;48.804;9.228;2022-10-16T06:33:08;17.70;97.90
72936;DHT22;61085;48.804;9.228;2022-10-16T06:35:33;17.40;98.50
72936;DHT22;61085;48.804;9.228;2022-10-16T06:37:59;17.20;99.10
72936;DHT22;61085;48.804;9.228;2022-10-16T06:40:24;17.10;99.90
72936;DHT22;61085;48.804;9.228;2022-10-16T06:42:50;16.90;99.90
72936;DHT22;61085;48.804;9.228;2022-10-16T06:45:17;16.80;99.90
72936;DHT22;61085;48.804;9.228;2022-10-16T06:47:42;16.70;99.90
72936;DHT22;61085;48.804;9.228;2022-10-16T06:50:08;16.70;99.90
72936;DHT22;61085;48.804;9.228;2022-10-16T06:52:34;16.80;99.90
72936;DHT22;61085;48.804;9.228;2022-10-16T06:54:59;17.20;99.90
72936;DHT22;61085;48.804;9.228;2022-10-16T06:57:26;17.90;98.60
72936;DHT22;61085;48.804;9.228;2022-10-16T06:59:52;17.80;98.10
72936;DHT22;61085;48.804;9.228;2022-10-16T07:02:20;17.90;97.30
72936;DHT22;61085;48.804;9.228;2022-10-16T07:04:46;17.60;97.60
72936;DHT22;61085;48.804;9.228;2022-10-16T07:07:12;17.20;98.90
72936;DHT22;61085;48.804;9.228;2022-10-16T07:09:37;17.10;99.50
72936;DHT22;61085;48.804;9.228;2022-10-16T07:12:03;17.10;99.40
72936;DHT22;61085;48.804;9.228;2022-10-16T07:14:29;17.00;99.90
72936;DHT22;61085;48.804;9.228;2022-10-16T07:16:55;17.00;99.90
72936;DHT22;61085;48.804;9.228;2022-10-16T07:19:21;17.00;99.90
72936;DHT22;61085;48.804;9.228;2022-10-16T07:21:46;17.00;99.90
72936;DHT22;61085;48.804;9.228;2022-10-16T07:24:14;16.90;99.90
72936;DHT22;61085;48.804;9.228;2022-10-16T07:26:41;17.00;99.90
72936;DHT22;61085;48.804;9.228;2022-10-16T07:29:13;17.10;99.90
72936;DHT22;61085;48.804;9.228;2022-10-16T07:31:40;17.20;99.70
72936;DHT22;61085;48.804;9.228;2022-10-16T07:34:06;17.20;99.60
72936;DHT22;61085;48.804;9.228;2022-10-16T07:36:32;17.10;99.80
72936;DHT22;61085;48.804;9.228;2022-10-16T07:38:57;17.10;99.90
72936;DHT22;61085;48.804;9.228;2022-10-16T07:41:23;17.10;99.60
72936;DHT22;61085;48.804;9.228;2022-10-16T07:43:51;17.10;99.90
72936;DHT22;61085;48.804;9.228;2022-10-16T07:46:19;16.90;99.90
72936;DHT22;61085;48.804;9.228;2022-10-16T07:48:45;16.90;99.90
72936;DHT22;61085;48.804;9.228;2022-10-16T07:51:17;16.90;99.90
72936;DHT22;61085;48.804;9.228;2022-10-16T07:53:43;16.90;99.90
72936;DHT22;61085;48.804;9.228;2022-10-16T07:56:09;16.90;99.90
72936;DHT22;61085;48.804;9.228;2022-10-16T07:58:36;16.90;99.90
72936;DHT22;61085;48.804;9.228;2022-10-16T08:01:06;16.90;99.90
72936;DHT22;61085;48.804;9.228;2022-10-16T08:03:32;17.00;99.90
72936;DHT22;61085;48.804;9.228;2022-10-16T08:05:59;17.10;99.90
72936;DHT22;61085;48.804;9.228;2022-10-16T08:08:25;17.10;99.90
72936;DHT22;61085;48.804;9.228;2022-10-16T08:10:51;17.20;99.90
72936;DHT22;61085;48.804;9.228;2022-10-16T08:13:17;17.30;99.60
72936;DHT22;61085;48.804;9.228;2022-10-16T08:15:43;17.30;99.30
72936;DHT22;61085;48.804;9.228;2022-10-16T08:18:10;17.40;99.20
72936;DHT22;61085;48.804;9.228;2022-10-16T08:20:36;17.50;98.60
72936;DHT22;61085;48.804;9.228;2022-10-16T08:23:01;17.40;98.70
72936;DHT22;61085;48.804;9.228;2022-10-16T08:25:27;17.50;98.50
72936;DHT22;61085;48.804;9.228;2022-10-16T08:27:53;17.50;98.30
72936;DHT22;61085;48.804;9.228;2022-10-16T08:30:20;17.70;98.00
72936;DHT22;61085;48.804;9.228;2022-10-16T08:32:47;18.00;97.00
72936;DHT22;61085;48.804;9.228;2022-10-16T08:35:13;18.30;96.70
72936;DHT22;61085;48.804;9.228;2022-10-16T08:37:39;18.50;96.10
72936;DHT22;61085;48.804;9.228;2022-10-16T08:40:07;18.80;95.20
72936;DHT22;61085;48.804;9.228;2022-10-16T08:43:12;18.80;94.60
72936;DHT22;61085;48.804;9.228;2022-10-16T08:48:50;18.80;93.90
72936;DHT22;61085;48.804;9.228;2022-10-16T08:51:32;18.80;93.90
72936;DHT22;61085;48.804;9.228;2022-10-16T08:54:05;18.70;94.40
72936;DHT22;61085;48.804;9.228;2022-10-16T08:56:31;18.70;94.10
72936;DHT22;61085;48.804;9.228;2022-10-16T08:58:59;18.60;93.90
72936;DHT22;61085;48.804;9.228;2022-10-16T09:01:37;18.80;93.90
72936;DHT22;61085;48.804;9.228;2022-10-16T09:14:47;19.20;92.80
72936;DHT22;61085;48.804;9.228;2022-10-16T09:22:32;19.40;92.10
72936;DHT22;61085;48.804;9.228;2022-10-16T09:25:11;19.50;91.70
72936;DHT22;61085;48.804;9.228;2022-10-16T09:27:37;19.70;91.80
72936;DHT22;61085;48.804;9.228;2022-10-16T09:30:11;19.80;91.60
72936;DHT22;61085;48.804;9.228;2022-10-16T09:32:38;20.00;90.90
72936;DHT22;61085;48.804;9.228;2022-10-16T09:35:14;20.20;90.80
72936;DHT22;61085;48.804;9.228;2022-10-16T09:37:42;20.10;90.00
72936;DHT22;61085;48.804;9.228;2022-10-16T09:40:34;20.10;90.20
72936;DHT22;61085;48.804;9.228;2022-10-16T09:43:22;20.20;89.60
72936;DHT22;61085;48.804;9.228;2022-10-16T09:46:00;20.20;89.20
72936;DHT22;61085;48.804;9.228;2022-10-16T09:48:44;20.10;87.90
72936;DHT22;61085;48.804;9.228;2022-10-16T09:51:24;20.00;87.30
72936;DHT22;61085;48.804;9.228;2022-10-16T09:54:01;20.10;88.00
72936;DHT22;61085;48.804;9.228;2022-10-16T09:56:35;20.10;87.90
72936;DHT22;61085;48.804;9.228;2022-10-16T09:59:19;20.20;87.30
72936;DHT22;61085;48.804;9.228;2022-10-16T10:01:54;20.50;87.40
72936;DHT22;61085;48.804;9.228;2022-10-16T10:04:23;20.70;85.60
72936;DHT22;61085;48.804;9.228;2022-10-16T10:06:51;20.60;85.60
72936;DHT22;61085;48.804;9.228;2022-10-16T10:09:23;20.60;85.90
72936;DHT22;61085;48.804;9.228;2022-10-16T10:12:06;20.60;85.80
72936;DHT22;61085;48.804;9.228;2022-10-16T10:14:46;20.60;85.80
72936;DHT22;61085;48.804;9.228;2022-10-16T10:17:20;20.40;86.90
72936;DHT22;61085;48.804;9.228;2022-10-16T10:22:17;20.60;86.80
72936;DHT22;61085;48.804;9.228;2022-10-16T10:24:54;20.80;86.70
72936;DHT22;61085;48.804;9.228;2022-10-16T10:27:19;20.80;85.00
72936;DHT22;61085;48.804;9.228;2022-10-16T10:29:53;21.20;83.90
72936;DHT22;61085;48.804;9.228;2022-10-16T10:35:22;21.20;83.70
72936;DHT22;61085;48.804;9.228;2022-10-16T10:43:50;21.70;81.20
72936;DHT22;61085;48.804;9.228;2022-10-16T10:46:39;21.80;80.40
72936;DHT22;61085;48.804;9.228;2022-10-16T10:55:10;22.40;77.00
72936;DHT22;61085;48.804;9.228;2022-10-16T11:08:51;22.90;71.20
72936;DHT22;61085;48.804;9.228;2022-10-16T11:11:31;22.90;72.50
72936;DHT22;61085;48.804;9.228;2022-10-16T11:14:19;23.00;68.90
72936;DHT22;61085;48.804;9.228;2022-10-16T11:16:53;22.80;69.30
72936;DHT22;61085;48.804;9.228;2022-10-16T11:19:33;22.80;69.30
72936;DHT22;61085;48.804;9.228;2022-10-16T11:24:45;22.50;69.50
72936;DHT22;61085;48.804;9.228;2022-10-16T11:27:15;22.60;70.50
72936;DHT22;61085;48.804;9.228;2022-10-16T11:29:53;22.70;70.00
72936;DHT22;61085;48.804;9.228;2022-10-16T11:32:27;22.80;68.80
72936;DHT22;61085;48.804;9.228;2022-10-16T11:34:59;22.90;67.80
72936;DHT22;61085;48.804;9.228;2022-10-16T11:37:30;23.00;68.60
72936;DHT22;61085;48.804;9.228;2022-10-16T11:42:57;23.10;69.40
72936;DHT22;61085;48.804;9.228;2022-10-16T11:45:45;23.20;66.50
72936;DHT22;61085;48.804;9.228;2022-10-16T11:48:32;23.10;66.10
72936;DHT22;61085;48.804;9.228;2022-10-16T11:51:33;23.20;64.80
72936;DHT22;61085;48.804;9.228;2022-10-16T11:56:58;23.40;64.40
72936;DHT22;61085;48.804;9.228;2022-10-16T12:02:11;23.60;62.70
72936;DHT22;61085;48.804;9.228;2022-10-16T12:05:19;23.90;62.60
72936;DHT22;61085;48.804;9.228;2022-10-16T12:08:02;24.10;60.70
72936;DHT22;61085;48.804;9.228;2022-10-16T12:10:31;24.00;60.30
72936;DHT22;61085;48.804;9.228;2022-10-16T12:15:48;24.10;59.30
72936;DHT22;61085;48.804;9.228;2022-10-16T12:18:24;24.10;59.30
72936;DHT22;61085;48.804;9.228;2022-10-16T12:20:57;24.00;59.10
72936;DHT22;61085;48.804;9.228;2022-10-16T12:23:24;23.90;60.90
72936;DHT22;61085;48.804;9.228;2022-10-16T12:25:55;23.90;59.80
72936;DHT22;61085;48.804;9.228;2022-10-16T12:28:26;23.90;59.70
72936;DHT22;61085;48.804;9.228;2022-10-16T12:31:04;23.80;60.90
72936;DHT22;61085;48.804;9.228;2022-10-16T12:33:40;23.60;58.60
72936;DHT22;61085;48.804;9.228;2022-10-16T12:36:15;23.70;59.20
72936;DHT22;61085;48.804;9.228;2022-10-16T12:38:49;24.00;58.30
72936;DHT22;61085;48.804;9.228;2022-10-16T12:41:26;24.20;58.10
72936;DHT22;61085;48.804;9.228;2022-10-16T12:43:52;24.30;57.60
72936;DHT22;61085;48.804;9.228;2022-10-16T12:48:44;24.60;57.40
72936;DHT22;61085;48.804;9.228;2022-10-16T12:51:11;24.30;58.10
72936;DHT22;61085;48.804;9.228;2022-10-16T12:53:37;24.10;58.80
72936;DHT22;61085;48.804;9.228;2022-10-16T13:04:29;23.70;60.00
72936;DHT22;61085;48.804;9.228;2022-10-16T13:07:16;23.60;60.90
72936;DHT22;61085;48.804;9.228;2022-10-16T13:13:07;23.50;62.30
72936;DHT22;61085;48.804;9.228;2022-10-16T13:15:48;23.40;61.50
72936;DHT22;61085;48.804;9.228;2022-10-16T13:18:33;23.40;61.70
72936;DHT22;61085;48.804;9.228;2022-10-16T13:21:13;23.50;60.30
72936;DHT22;61085;48.804;9.228;2022-10-16T13:23:48;23.60;59.50
72936;DHT22;61085;48.804;9.228;2022-10-16T13:29:16;23.70;59.90
72936;DHT22;61085;48.804;9.228;2022-10-16T13:31:42;23.70;58.80
72936;DHT22;61085;48.804;9.228;2022-10-16T13:34:14;23.80;59.20
72936;DHT22;61085;48.804;9.228;2022-10-16T13:36:46;23.70;59.30
72936;DHT22;61085;48.804;9.228;2022-10-16T13:44:52;23.80;59.00
72936;DHT22;61085;48.804;9.228;2022-10-16T13:47:28;23.80;57.70
72936;DHT22;61085;48.804;9.228;2022-10-16T13:50:14;23.70;58.10
72936;DHT22;61085;48.804;9.228;2022-10-16T13:52:44;23.80;58.70
72936;DHT22;61085;48.804;9.228;2022-10-16T13:55:17;23.70;59.00
72936;DHT22;61085;48.804;9.228;2022-10-16T13:57:44;23.80;59.60
72936;DHT22;61085;48.804;9.228;2022-10-16T14:00:25;23.70;60.00
72936;DHT22;61085;48.804;9.228;2022-10-16T14:03:11;23.70;58.90
72936;DHT22;61085;48.804;9.228;2022-10-16T14:05:55;23.70;58.90
72936;DHT22;61085;48.804;9.228;2022-10-16T14:08:22;23.60;58.30
72936;DHT22;61085;48.804;9.228;2022-10-16T14:10:51;23.70;58.70
72936;DHT22;61085;48.804;9.228;2022-10-16T14:13:20;23.60;58.70
72936;DHT22;61085;48.804;9.228;2022-10-16T14:15:51;23.80;58.20
72936;DHT22;61085;48.804;9.228;2022-10-16T14:18:23;23.60;58.00
72936;DHT22;61085;48.804;9.228;2022-10-16T14:20:50;23.50;58.60
72936;DHT22;61085;48.804;9.228;2022-10-16T14:23:20;23.50;59.60
72936;DHT22;61085;48.804;9.228;2022-10-16T14:25:46;23.40;61.30
72936;DHT22;61085;48.804;9.228;2022-10-16T14:28:17;23.40;60.80
72936;DHT22;61085;48.804;9.228;2022-10-16T14:30:58;23.50;63.00
72936;DHT22;61085;48.804;9.228;2022-10-16T14:38:35;23.30;62.40
72936;DHT22;61085;48.804;9.228;2022-10-16T14:41:03;23.40;64.10
72936;DHT22;61085;48.804;9.228;2022-10-16T14:43:41;23.30;63.30
72936;DHT22;61085;48.804;9.228;2022-10-16T14:46:12;23.30;63.50
72936;DHT22;61085;48.804;9.228;2022-10-16T14:48:50;23.50;63.60
72936;DHT22;61085;48.804;9.228;2022-10-16T14:51:19;23.20;64.10
72936;DHT22;61085;48.804;9.228;2022-10-16T14:53:46;23.30;63.80
72936;DHT22;61085;48.804;9.228;2022-10-16T14:56:22;23.20;64.30
72936;DHT22;61085;48.804;9.228;2022-10-16T14:58:50;23.10;65.60
72936;DHT22;61085;48.804;9.228;2022-10-16T15:01:16;23.30;66.10
72936;DHT22;61085;48.804;9.228;2022-10-16T15:03:42;23.20;66.70
72936;DHT22;61085;48.804;9.228;2022-10-16T15:06:11;23.20;67.60
72936;DHT22;61085;48.804;9.228;2022-10-16T15:08:37;23.10;68.00
72936;DHT22;61085;48.804;9.228;2022-10-16T15:11:03;23.10;68.50
72936;DHT22;61085;48.804;9.228;2022-10-16T15:13:29;23.10;68.50
72936;DHT22;61085;48.804;9.228;2022-10-16T15:15:55;23.00;69.20
72936;DHT22;61085;48.804;9.228;2022-10-16T15:18:20;23.00;69.10
72936;DHT22;61085;48.804;9.228;2022-10-16T15:20:50;22.90;69.50
72936;DHT22;61085;48.804;9.228;2022-10-16T15:23:18;23.00;69.60
72936;DHT22;61085;48.804;9.228;2022-10-16T15:25:52;22.80;69.60
72936;DHT22;61085;48.804;9.228;2022-10-16T15:28:19;22.90;69.80
72936;DHT22;61085;48.804;9.228;2022-10-16T15:30:46;22.80;70.90
72936;DHT22;61085;48.804;9.228;2022-10-16T15:33:16;22.90;70.40
72936;DHT22;61085;48.804;9.228;2022-10-16T15:35:42;22.80;70.90
72936;DHT22;61085;48.804;9.228;2022-10-16T15:38:12;22.80;70.80
72936;DHT22;61085;48.804;9.228;2022-10-16T15:40:38;22.80;70.80
72936;DHT22;61085;48.804;9.228;2022-10-16T15:43:04;22.70;71.50
72936;DHT22;61085;48.804;9.228;2022-10-16T15:45:29;22.70;72.00
72936;DHT22;61085;48.804;9.228;2022-10-16T15:47:55;22.90;72.00
72936;DHT22;61085;48.804;9.228;2022-10-16T15:50:21;22.50;72.50
72936;DHT22;61085;48.804;9.228;2022-10-16T15:52:46;22.50;73.30
72936;DHT22;61085;48.804;9.228;2022-10-16T15:55:14;22.50;73.80
72936;DHT22;61085;48.804;9.228;2022-10-16T15:57:40;22.50;74.10
72936;DHT22;61085;48.804;9.228;2022-10-16T16:00:11;22.50;74.80
72936;DHT22;61085;48.804;9.228;2022-10-16T16:02:37;22.30;75.30
72936;DHT22;61085;48.804;9.228;2022-10-16T16:05:02;22.30;76.10
72936;DHT22;61085;48.804;9.228;2022-10-16T16:07:32;22.30;76.60
72936;DHT22;61085;48.804;9.228;2022-10-16T16:09:57;22.20;77.10
72936;DHT22;61085;48.804;9.228;2022-10-16T16:12:23;22.10;77.90
72936;DHT22;61085;48.804;9.228;2022-10-16T16:14:48;22.10;78.30
72936;DHT22;61085;48.804;9.228;2022-10-16T16:17:14;22.00;78.70
72936;DHT22;61085;48.804;9.228;2022-10-16T16:19:40;22.00;79.30
72936;DHT22;61085;48.804;9.228;2022-10-16T16:22:06;22.00;80.20
72936;DHT22;61085;48.804;9.228;2022-10-16T16:24:31;22.00;80.00
72936;DHT22;61085;48.804;9.228;2022-10-16T16:26:57;21.90;77.80
72936;DHT22;61085;48.804;9.228;2022-10-16T16:29:22;22.00;78.70
72936;DHT22;61085;48.804;9.228;2022-10-16T16:31:48;21.90;79.50
72936;DHT22;61085;48.804;9.228;2022-10-16T16:34:14;21.70;80.10
72936;DHT22;61085;48.804;9.228;2022-10-16T16:36:46;21.50;80.30
72936;DHT22;61085;48.804;9.228;2022-10-16T16:39:11;21.50;81.30
72936;DHT22;61085;48.804;9.228;2022-10-16T16:41:37;21.40;80.30
72936;DHT22;61085;48.804;9.228;2022-10-16T16:44:05;21.40;80.30
72936;DHT22;61085;48.804;9.228;2022-10-16T16:46:32;21.30;82.70
72936;DHT22;61085;48.804;9.228;2022-10-16T16:48:58;21.40;82.50
72936;DHT22;61085;48.804;9.228;2022-10-16T16:51:24;21.40;82.00
72936;DHT22;61085;48.804;9.228;2022-10-16T16:53:51;21.00;81.40
72936;DHT22;61085;48.804;9.228;2022-10-16T16:56:19;20.90;82.20
72936;DHT22;61085;48.804;9.228;2022-10-16T16:58:45;20.90;82.60
72936;DHT22;61085;48.804;9.228;2022-10-16T17:01:11;20.90;82.90
72936;DHT22;61085;48.804;9.228;2022-10-16T17:03:37;20.60;83.50
72936;DHT22;61085;48.804;9.228;2022-10-16T17:06:07;20.70;84.10
72936;DHT22;61085;48.804;9.228;2022-10-16T17:08:37;20.70;84.50
72936;DHT22;61085;48.804;9.228;2022-10-16T17:11:04;20.70;85.20
72936;DHT22;61085;48.804;9.228;2022-10-16T17:13:33;20.70;85.50
72936;DHT22;61085;48.804;9.228;2022-10-16T17:16:04;20.60;86.50
72936;DHT22;61085;48.804;9.228;2022-10-16T17:18:31;20.50;87.50
72936;DHT22;61085;48.804;9.228;2022-10-16T17:21:05;20.50;87.80
72936;DHT22;61085;48.804;9.228;2022-10-16T17:23:32;20.50;87.80
72936;DHT22;61085;48.804;9.228;2022-10-16T17:26:13;20.50;87.90
72936;DHT22;61085;48.804;9.228;2022-10-16T17:28:40;20.40;88.20
72936;DHT22;61085;48.804;9.228;2022-10-16T17:31:16;20.30;88.30